Time;durP1;ratioP1;P1;durP2;ratioP2;P2;SDS_P1;SDS_P2;PMS_P1;PMS_P2;Temp;Humidity;BMP_temperature;BMP_pressure;BME280_temperature;BME280_humidity;BME280_pressure;Samples;Min_cycle;Max_cycle;Signal;HPM_P1;HPM_P2
2021/11/21 00:02:19;;;;;;;19.77;14.45;;;;;;;8.89;67.97;100061.05;2190936;80;34081;-61
2021/11/21 00:05:21;;;;;;;20.00;14.30;;;;;;;8.91;67.97;100049.83;2191006;80;30554;-61
2021/11/21 00:08:24;;;;;;;17.70;13.00;;;;;;;8.92;67.98;100046.22;2191429;80;27817;-60
2021/11/21 00:11:26;;;;;;;20.82;13.30;;;;;;;8.94;68.05;100043.86;2191285;80;29058;-61
2021/11/21 00:14:30;;;;;;;19.77;13.35;;;;;;;8.96;67.99;100040.66;2191118;81;32214;-61
2021/11/21 00:17:32;;;;;;;15.00;9.98;;;;;;;8.98;68.12;100032.59;2191457;80;33782;-61
2021/11/21 00:20:36;;;;;;;21.42;13.75;;;;;;;9.00;68.09;100028.04;2179354;81;30134;-63
2021/11/21 00:23:39;;;;;;;19.07;12.73;;;;;;;9.01;68.01;100027.10;2170025;81;27662;-60
2021/11/21 00:26:41;;;;;;;17.50;12.78;;;;;;;9.03;68.20;100023.86;2172040;81;28637;-59
2021/11/21 00:29:43;;;;;;;16.75;12.90;;;;;;;9.04;68.20;100019.40;2188067;80;32002;-60
2021/11/21 00:32:45;;;;;;;17.60;12.73;;;;;;;9.04;68.17;100010.89;2153707;82;33871;-63
2021/11/21 00:35:47;;;;;;;19.75;13.53;;;;;;;9.06;68.19;100007.69;2174579;80;30689;-59
2021/11/21 00:38:49;;;;;;;20.25;13.38;;;;;;;9.06;68.19;100005.50;2160428;81;27681;-59
2021/11/21 00:41:50;;;;;;;18.48;11.95;;;;;;;9.06;68.11;100005.50;2131096;83;30005;-59
2021/11/21 00:44:52;;;;;;;19.45;13.72;;;;;;;9.05;68.00;100007.29;2172583;81;32419;-59
2021/11/21 00:47:55;;;;;;;18.32;12.73;;;;;;;9.05;67.97;99987.73;2187145;80;33164;-59
2021/11/21 00:51:00;;;;;;;18.82;13.05;;;;;;;9.04;68.00;99987.33;2145244;83;29858;-64
2021/11/21 00:54:10;;;;;;;16.65;11.68;;;;;;;9.05;68.19;99987.25;2145622;82;27706;-58
2021/11/21 00:57:09;;;;;;;16.90;12.25;;;;;;;9.07;68.19;99979.17;2079704;85;30140;-58
2021/11/21 01:00:14;;;;;;;16.65;12.35;;;;;;;9.06;68.29;99980.11;2082149;85;32276;-61
2021/11/21 01:03:19;;;;;;;18.37;11.50;;;;;;;9.06;68.24;99976.95;2111178;79;33188;-62
2021/11/21 01:06:21;;;;;;;;;;;;;;;9.06;68.27;99971.61;2201252;80;29351;-65
2021/11/21 01:09:24;;;;;;;16.23;11.28;;;;;;;9.06;68.22;99973.43;2158672;82;28227;-63
2021/11/21 01:12:26;;;;;;;15.90;11.10;;;;;;;9.05;68.23;99972.55;2198791;80;29059;-62
2021/11/21 01:15:29;;;;;;;18.50;11.20;;;;;;;9.06;68.36;99972.09;2229477;79;32159;-63
2021/11/21 01:18:31;;;;;;;16.62;11.63;;;;;;;9.05;68.30;99965.02;2198738;81;33121;-60
2021/11/21 01:21:33;;;;;;;16.50;11.45;;;;;;;9.05;68.09;99964.53;2229579;79;29518;-60
2021/11/21 01:24:35;;;;;;;16.73;11.53;;;;;;;9.04;68.09;99966.81;2198677;81;28197;-62
2021/11/21 01:27:38;;;;;;;19.12;11.90;;;;;;;9.06;68.27;99960.92;2229835;79;29101;-60
2021/11/21 01:30:41;;;;;;;16.10;11.33;;;;;;;9.06;68.28;99957.41;2198709;81;31002;-63
2021/11/21 01:33:43;;;;;;;16.50;10.80;;;;;;;9.07;68.21;99952.45;2229316;79;32939;-64
2021/11/21 01:36:45;;;;;;;18.20;11.75;;;;;;;9.06;68.25;99942.22;2198895;81;30417;-65
2021/11/21 01:39:47;;;;;;;15.80;11.78;;;;;;;9.07;68.26;99933.27;2229148;79;27694;-65
2021/11/21 01:42:50;;;;;;;16.80;10.55;;;;;;;9.08;68.24;99929.66;2198832;81;29035;-65
2021/11/21 01:45:52;;;;;;;13.85;10.00;;;;;;;9.08;68.29;99923.45;2228924;79;32200;-65
2021/11/21 01:48:54;;;;;;;16.52;11.45;;;;;;;9.08;68.46;99921.63;2198325;81;34360;-65
2021/11/21 01:51:56;;;;;;;15.45;10.30;;;;;;;9.10;68.51;99922.91;2229320;79;30657;-64
2021/11/21 01:54:58;;;;;;;18.70;11.30;;;;;;;9.09;68.43;99911.34;2198978;80;27686;-64
2021/11/21 01:58:01;;;;;;;15.55;11.48;;;;;;;9.10;68.58;99911.73;2228944;79;29994;-66
2021/11/21 02:01:03;;;;;;;16.87;10.18;;;;;;;9.11;68.62;99908.13;2198971;81;31247;-65
2021/11/21 02:04:05;;;;;;;17.75;11.03;;;;;;;9.12;68.76;99915.66;2225510;79;32740;-64
2021/11/21 02:07:07;;;;;;;14.75;11.20;;;;;;;9.12;68.78;99907.64;2219946;80;30518;-64
2021/11/21 02:10:12;;;;;;;17.25;10.72;;;;;;;9.12;68.77;99903.17;2220258;80;27684;-65
2021/11/21 02:13:15;;;;;;;18.32;11.57;;;;;;;9.14;68.73;99906.25;2220391;80;28651;-64
2021/11/21 02:16:22;;;;;;;14.07;10.75;;;;;;;9.13;68.78;99901.36;2220025;80;32248;-64
2021/11/21 02:19:24;;;;;;;16.02;11.38;;;;;;;9.15;68.79;99906.64;2220222;80;33315;-64
2021/11/21 02:22:25;;;;;;;15.58;12.33;;;;;;;9.13;68.76;99901.36;2220351;80;30562;-63
2021/11/21 02:25:28;;;;;;;16.60;12.20;;;;;;;9.14;68.76;99912.44;2220739;80;27685;-64
2021/11/21 02:28:30;;;;;;;17.95;12.82;;;;;;;9.14;68.80;99911.11;2220205;80;29479;-64
2021/11/21 02:31:32;;;;;;;17.02;11.78;;;;;;;9.14;68.90;99900.91;2220014;80;31290;-63
2021/11/21 02:34:35;;;;;;;17.32;12.25;;;;;;;9.14;68.83;99896.41;2219859;80;34196;-65
2021/11/21 02:37:37;;;;;;;16.42;12.23;;;;;;;9.15;68.89;99899.96;2219832;80;31422;-65
2021/11/21 02:40:39;;;;;;;16.87;11.63;;;;;;;9.13;68.99;99885.32;2220422;80;27604;-64
2021/11/21 02:43:45;;;;;;;15.95;12.00;;;;;;;9.12;69.06;99870.23;2219983;80;29420;-64
2021/11/21 02:46:48;;;;;;;17.42;11.70;;;;;;;9.12;69.10;99866.22;2220232;80;31005;-63
2021/11/21 02:49:50;;;;;;;14.25;10.85;;;;;;;9.10;68.91;99862.30;2220355;80;32938;-64
2021/11/21 02:52:53;;;;;;;15.48;10.82;;;;;;;9.09;68.78;99851.22;2220553;80;29330;-64
2021/11/21 02:55:58;;;;;;;17.92;11.53;;;;;;;9.09;68.84;99853.04;2220555;80;27679;-64
2021/11/21 02:59:00;;;;;;;14.98;10.78;;;;;;;9.09;68.81;99847.21;2220582;80;29503;-65
2021/11/21 03:02:03;;;;;;;13.70;10.82;;;;;;;9.09;68.80;99849.03;2220090;80;32244;-65
2021/11/21 03:05:06;;;;;;;14.40;11.25;;;;;;;9.09;68.91;99846.36;2225723;79;34179;-64
2021/11/21 03:08:08;;;;;;;13.65;10.00;;;;;;;9.10;69.00;99848.09;2198818;81;29454;-59
2021/11/21 03:11:30;;;;;;;14.40;10.85;;;;;;;9.09;68.94;99837.01;2229767;79;27576;-59
2021/11/21 03:14:32;;;;;;;13.08;9.83;;;;;;;9.09;69.01;99843.20;2198723;81;29852;-64
2021/11/21 03:17:35;;;;;;;15.23;11.00;;;;;;;9.10;69.04;99837.41;2229747;79;31396;-59
2021/11/21 03:20:38;;;;;;;16.10;11.18;;;;;;;9.09;69.09;99837.01;2198985;81;33049;-61
2021/11/21 03:23:41;;;;;;;14.15;10.48;;;;;;;9.08;68.90;99836.13;2202298;80;30616;-59
2021/11/21 03:26:43;;;;;;;14.25;10.75;;;;;;;9.09;69.10;99842.35;2202538;80;27833;-62
2021/11/21 03:29:46;;;;;;;13.88;10.30;;;;;;;9.08;69.28;99837.46;2202870;80;29108;-59
2021/11/21 03:32:50;;;;;;;15.80;10.25;;;;;;;9.07;69.28;99837.06;2202429;80;32226;-60
2021/11/21 03:35:52;;;;;;;14.20;10.93;;;;;;;9.07;69.27;99839.73;2202487;80;33861;-60
2021/11/21 03:38:54;;;;;;;14.23;10.60;;;;;;;9.05;69.18;99836.28;2202860;80;29494;-58
2021/11/21 03:41:56;;;;;;;10.88;9.28;;;;;;;9.05;69.18;99830.08;2202495;80;27679;-61
2021/11/21 03:44:58;;;;;;;12.70;10.23;;;;;;;9.03;69.33;99825.28;2202652;80;29098;-59
2021/11/21 03:47:59;;;;;;;14.18;10.45;;;;;;;9.02;69.41;99818.20;2202725;80;32159;-59
2021/11/21 03:51:01;;;;;;;16.85;11.20;;;;;;;9.01;69.35;99817.36;2202917;80;33298;-58
2021/11/21 03:54:04;;;;;;;13.62;11.43;;;;;;;9.00;69.40;99820.09;2202297;80;30506;-58
2021/11/21 03:57:06;;;;;;;14.95;11.33;;;;;;;9.00;69.47;99808.07;2202309;80;28281;-63
2021/11/21 04:00:16;;;;;;;15.55;12.18;;;;;;;8.99;69.48;99802.33;2202240;80;29524;-60
2021/11/21 04:03:20;;;;;;;15.20;12.05;;;;;;;8.98;69.44;99804.16;2202700;80;31446;-64
2021/11/21 04:06:21;;;;;;;17.35;11.80;;;;;;;8.97;69.29;99801.94;2202145;80;33183;-65
2021/11/21 04:09:24;;;;;;;15.32;11.50;;;;;;;8.95;69.35;99801.63;2202225;80;30571;-64
2021/11/21 04:12:27;;;;;;;17.25;11.90;;;;;;;8.94;69.27;99802.09;2202613;80;27669;-64
2021/11/21 04:15:29;;;;;;;15.65;11.75;;;;;;;8.93;69.24;99807.06;2202255;80;29909;-61
2021/11/21 04:18:33;;;;;;;17.37;11.45;;;;;;;8.90;69.18;99797.86;2202676;80;32202;-59
2021/11/21 04:21:35;;;;;;;18.17;12.93;;;;;;;8.88;69.13;99801.54;2202190;80;33808;-60
2021/11/21 04:24:37;;;;;;;17.77;12.40;;;;;;;8.85;69.05;99804.39;2202597;80;30462;-60
2021/11/21 04:27:40;;;;;;;16.07;11.95;;;;;;;8.83;69.03;99798.26;2202695;80;27697;-63
2021/11/21 04:30:42;;;;;;;15.43;11.63;;;;;;;8.82;69.21;99790.70;2202526;80;28168;-63
2021/11/21 04:33:44;;;;;;;15.03;11.88;;;;;;;8.79;69.18;99783.72;2202335;80;32199;-60
2021/11/21 04:36:46;;;;;;;16.73;11.68;;;;;;;8.78;69.03;99776.64;2202631;80;32760;-62
2021/11/21 04:39:48;;;;;;;17.98;12.78;;;;;;;8.77;69.14;99782.92;2202315;80;30161;-64
2021/11/21 04:42:50;;;;;;;16.25;12.33;;;;;;;8.76;69.07;99784.35;2202550;80;27666;-59
2021/11/21 04:45:54;;;;;;;16.40;12.25;;;;;;;8.75;69.08;99778.61;2202706;80;29836;-59
2021/11/21 04:48:55;;;;;;;18.32;13.68;;;;;;;8.74;69.17;99771.05;2203026;80;31699;-59
2021/11/21 04:51:57;;;;;;;18.15;12.50;;;;;;;8.73;69.04;99769.81;2202536;80;34009;-60
2021/11/21 04:54:59;;;;;;;18.48;12.73;;;;;;;8.72;69.04;99760.92;2202578;80;29725;-64
2021/11/21 04:58:01;;;;;;;18.92;13.88;;;;;;;8.71;69.10;99754.33;2202440;80;27698;-61
2021/11/21 05:01:03;;;;;;;15.88;11.55;;;;;;;8.71;69.18;99753.00;2202341;80;29900;-64
2021/11/21 05:04:05;;;;;;;18.23;12.47;;;;;;;8.68;69.13;99754.48;2202471;80;31392;-59
2021/11/21 05:07:07;;;;;;;19.02;13.15;;;;;;;8.68;69.08;99751.81;2202953;80;33470;-61
2021/11/21 05:10:10;;;;;;;18.60;13.95;;;;;;;8.65;69.10;99743.02;2203409;80;29736;-62
2021/11/21 05:13:11;;;;;;;17.02;13.43;;;;;;;8.64;69.08;99738.61;2203319;80;27620;-60
2021/11/21 05:16:14;;;;;;;22.17;14.40;;;;;;;8.62;69.02;99731.14;2203043;80;29080;-62
2021/11/21 05:19:16;;;;;;;26.05;18.45;;;;;;;8.60;68.92;99727.72;2203397;80;31354;-65
2021/11/21 05:22:18;;;;;;;20.68;15.43;;;;;;;8.58;68.96;99721.59;2203596;80;33877;-63
2021/11/21 05:25:20;;;;;;;18.20;13.60;;;;;;;8.58;69.07;99711.36;2203121;80;29339;-63
2021/11/21 05:28:22;;;;;;;18.90;13.60;;;;;;;8.58;69.12;99716.70;2203565;80;27725;-64
2021/11/21 05:31:25;;;;;;;18.57;13.83;;;;;;;8.55;68.94;99717.73;2202926;80;29900;-65
2021/11/21 05:34:27;;;;;;;18.10;13.68;;;;;;;8.50;68.88;99713.97;2203132;80;31212;-64
2021/11/21 05:37:28;;;;;;;17.17;13.72;;;;;;;8.49;68.95;99711.36;2203302;80;33350;-65
2021/11/21 05:40:30;;;;;;;22.22;14.83;;;;;;;8.45;68.93;99701.28;2203406;80;29270;-64
2021/11/21 05:43:32;;;;;;;19.98;12.82;;;;;;;8.41;68.96;99697.03;2203610;80;27691;-65
2021/11/21 05:46:35;;;;;;;18.65;13.90;;;;;;;8.38;69.00;99695.00;2203154;80;29930;-62
2021/11/21 05:49:37;;;;;;;20.30;14.75;;;;;;;8.33;68.91;99693.41;2202777;80;31499;-63
2021/11/21 05:52:45;;;;;;;19.57;14.53;;;;;;;8.28;68.95;99694.59;2203199;80;33328;-65
2021/11/21 05:55:47;;;;;;;21.15;15.20;;;;;;;8.25;69.02;99694.73;2203162;80;29326;-64
2021/11/21 05:58:49;;;;;;;19.55;15.32;;;;;;;8.20;69.01;99700.31;2203606;80;27575;-64
2021/11/21 06:01:50;;;;;;;22.15;15.75;;;;;;;8.15;69.11;99701.88;2202825;80;29870;-64
2021/11/21 06:04:52;;;;;;;17.85;14.20;;;;;;;8.12;69.24;99709.14;2202801;80;32388;-65
2021/11/21 06:07:54;;;;;;;19.62;14.70;;;;;;;8.09;69.41;99699.50;2202857;80;34030;-63
2021/11/21 06:10:56;;;;;;;20.70;13.98;;;;;;;8.06;69.40;99707.20;2203239;80;29688;-62
2021/11/21 06:13:57;;;;;;;22.10;15.83;;;;;;;8.04;69.57;99704.19;2203022;80;28147;-63
2021/11/21 06:16:59;;;;;;;22.73;15.45;;;;;;;8.01;69.70;99703.87;2203121;80;30042;-63
2021/11/21 06:20:02;;;;;;;24.77;14.70;;;;;;;8.00;69.73;99703.97;2202778;80;32114;-62
2021/11/21 06:23:03;;;;;;;20.52;14.65;;;;;;;7.98;69.77;99699.17;2203246;80;33010;-64
2021/11/21 06:26:06;;;;;;;22.22;15.45;;;;;;;7.98;69.80;99705.84;2203357;80;29842;-65
2021/11/21 06:29:07;;;;;;;22.15;15.55;;;;;;;7.96;69.88;99698.38;2203345;80;27643;-64
2021/11/21 06:32:09;;;;;;;19.55;15.45;;;;;;;7.95;69.78;99701.50;2203261;80;29821;-64
2021/11/21 06:35:12;;;;;;;22.48;15.20;;;;;;;7.95;69.78;99704.66;2202871;80;31462;-64
2021/11/21 06:38:16;;;;;;;24.55;17.02;;;;;;;7.96;70.04;99701.89;2203326;80;32943;-63
2021/11/21 06:41:20;;;;;;;22.17;16.55;;;;;;;7.96;69.93;99700.56;2203101;80;29375;-62
2021/11/21 06:44:21;;;;;;;21.80;16.00;;;;;;;7.97;69.95;99699.62;2202693;80;27695;-63
2021/11/21 06:47:23;;;;;;;22.62;16.48;;;;;;;7.99;69.95;99696.42;2203298;80;29065;-64
2021/11/21 06:50:26;;;;;;;27.75;18.70;;;;;;;8.02;70.08;99696.27;2203332;80;31675;-65
2021/11/21 06:53:28;;;;;;;24.55;17.17;;;;;;;8.05;70.12;99701.47;2202761;80;33327;-64
2021/11/21 06:56:30;;;;;;;32.28;18.92;;;;;;;8.10;70.27;99703.05;2202482;80;30237;-61
2021/11/21 06:59:32;;;;;;;28.95;18.30;;;;;;;8.13;70.37;99697.09;2203007;80;28198;-62
2021/11/21 07:02:34;;;;;;;28.30;18.23;;;;;;;8.17;70.39;99701.79;2203171;80;29479;-64
2021/11/21 07:05:36;;;;;;;27.82;19.67;;;;;;;8.21;70.37;99698.04;2202635;80;31393;-65
2021/11/21 07:08:38;;;;;;;27.70;20.25;;;;;;;8.24;70.36;99693.89;2202147;80;33390;-64
2021/11/21 07:11:41;;;;;;;26.50;18.62;;;;;;;8.29;70.28;99690.98;2202035;80;29180;-65
2021/11/21 07:14:43;;;;;;;27.52;18.00;;;;;;;8.32;70.25;99687.69;2202381;80;27826;-61
2021/11/21 07:17:51;;;;;;;27.93;19.70;;;;;;;8.38;70.41;99685.17;2201977;80;28679;-63
2021/11/21 07:20:53;;;;;;;27.82;18.98;;;;;;;8.42;70.33;99683.23;2202272;80;31794;-64
2021/11/21 07:23:55;;;;;;;26.85;18.30;;;;;;;8.45;70.32;99681.27;2202021;80;34247;-60
2021/11/21 07:26:57;;;;;;;23.22;17.23;;;;;;;8.50;70.34;99685.06;2202268;80;30372;-61
2021/11/21 07:30:00;;;;;;;24.52;17.80;;;;;;;8.54;70.16;99687.97;2202412;80;27620;-59
2021/11/21 07:33:02;;;;;;;22.80;17.57;;;;;;;8.57;70.29;99680.27;2202319;80;29487;-60
2021/11/21 07:36:05;;;;;;;25.15;17.87;;;;;;;8.62;70.32;99672.89;2202002;80;32412;-59
2021/11/21 07:39:07;;;;;;;23.85;17.02;;;;;;;8.69;70.29;99678.77;2202516;80;33039;-59
2021/11/21 07:42:09;;;;;;;24.75;17.45;;;;;;;8.74;70.15;99676.73;2202476;80;30463;-61
2021/11/21 07:45:12;;;;;;;25.82;17.80;;;;;;;8.80;70.27;99682.62;2202767;80;27691;-61
2021/11/21 07:48:14;;;;;;;23.38;17.05;;;;;;;8.86;70.25;99678.76;2202515;80;28641;-61
2021/11/21 07:51:16;;;;;;;27.37;18.67;;;;;;;8.93;70.20;99684.63;2202310;80;31883;-60
2021/11/21 07:54:18;;;;;;;24.12;17.40;;;;;;;8.98;70.04;99679.92;2202411;80;34058;-59
2021/11/21 07:57:20;;;;;;;24.65;18.40;;;;;;;9.03;70.04;99683.19;2202664;80;29657;-60
2021/11/21 08:00:22;;;;;;;24.57;18.20;;;;;;;9.08;69.92;99679.81;2202402;80;27698;-64
2021/11/21 08:03:24;;;;;;;26.33;18.12;;;;;;;9.12;69.94;99678.70;2202195;80;29556;-66
2021/11/21 08:06:26;;;;;;;25.37;18.20;;;;;;;9.17;69.76;99681.61;2202433;80;31398;-64
2021/11/21 08:09:28;;;;;;;22.67;16.32;;;;;;;9.21;69.72;99678.69;2202519;80;33841;-64
2021/11/21 08:12:30;;;;;;;23.25;17.35;;;;;;;9.27;69.48;99672.98;2202632;80;30320;-63
2021/11/21 08:15:33;;;;;;;23.00;17.27;;;;;;;9.35;69.48;99673.05;2202566;80;28157;-64
2021/11/21 08:18:34;;;;;;;23.15;17.12;;;;;;;9.43;69.38;99669.50;2202247;80;29545;-61
2021/11/21 08:21:37;;;;;;;24.57;16.87;;;;;;;9.51;69.15;99665.91;2202649;80;32174;-63
2021/11/21 08:24:39;;;;;;;23.10;16.97;;;;;;;9.60;69.08;99671.72;2202524;80;33329;-61
2021/11/21 08:27:41;;;;;;;25.50;17.00;;;;;;;9.68;68.96;99674.31;2202318;80;29814;-59
2021/11/21 08:30:43;;;;;;;25.60;16.62;;;;;;;9.79;68.71;99665.70;2202639;80;28256;-59
2021/11/21 08:33:45;;;;;;;25.92;18.50;;;;;;;9.88;68.69;99677.23;2202238;80;29540;-60
2021/11/21 08:36:47;;;;;;;25.00;17.90;;;;;;;9.96;68.23;99673.23;2202354;80;32382;-59
2021/11/21 08:39:49;;;;;;;22.07;18.00;;;;;;;10.03;68.15;99675.95;2202787;80;32957;-59
2021/11/21 08:42:50;;;;;;;24.45;16.52;;;;;;;10.09;67.82;99672.06;2203070;80;29673;-60
2021/11/21 08:45:52;;;;;;;22.32;17.17;;;;;;;10.20;67.38;99673.63;2202226;80;28094;-60
2021/11/21 08:48:54;;;;;;;26.57;18.50;;;;;;;10.29;67.43;99662.86;2202432;80;29147;-59
2021/11/21 08:51:56;;;;;;;23.87;17.40;;;;;;;10.40;67.37;99660.92;2202281;80;32107;-60
2021/11/21 08:54:58;;;;;;;27.65;18.23;;;;;;;10.48;66.91;99656.84;2202272;80;34209;-59
2021/11/21 08:58:03;;;;;;;24.45;18.27;;;;;;;10.60;67.11;99662.41;2202226;80;30503;-61
2021/11/21 09:01:04;;;;;;;22.50;16.67;;;;;;;10.74;66.66;99661.58;2202904;80;33547;-59
2021/11/21 09:04:07;;;;;;;23.80;16.65;;;;;;;10.76;66.33;99650.30;2202642;80;29037;-57
2021/11/21 09:07:09;;;;;;;22.02;16.20;;;;;;;10.76;65.95;99660.52;2202361;80;31199;-59
2021/11/21 09:10:15;;;;;;;22.02;17.23;;;;;;;10.75;66.26;99656.61;2202808;80;32998;-58
2021/11/21 09:13:17;;;;;;;26.62;19.80;;;;;;;10.78;66.12;99658.61;2202419;80;29704;-59
2021/11/21 09:16:19;;;;;;;31.70;21.00;;;;;;;10.80;66.01;99657.20;2202371;79;27715;-61
2021/11/21 09:19:21;;;;;;;28.05;20.40;;;;;;;10.82;65.79;99645.91;2211824;79;28836;-59
2021/11/21 09:22:23;;;;;;;28.27;17.65;;;;;;;10.87;65.70;99646.96;2228158;79;31394;-64
2021/11/21 09:25:26;;;;;;;22.40;16.35;;;;;;;10.91;65.57;99648.02;2227950;79;30501;-64
2021/11/21 09:28:28;;;;;;;21.27;15.80;;;;;;;10.98;65.44;99651.66;2228232;79;30400;-64
2021/11/21 09:31:34;;;;;;;23.87;17.17;;;;;;;11.05;65.27;99652.98;2229065;79;27703;-64
2021/11/21 09:34:38;;;;;;;21.45;16.42;;;;;;;11.06;64.87;99652.91;2245480;79;28692;-63
2021/11/21 09:37:41;;;;;;;20.70;16.27;;;;;;;11.08;64.93;99649.66;2245915;79;31005;-62
2021/11/21 09:40:44;;;;;;;22.82;17.05;;;;;;;11.10;64.46;99649.55;2245014;78;33064;-68
2021/11/21 09:43:46;;;;;;;24.05;17.55;;;;;;;11.12;64.62;99639.59;2245049;79;30507;-65
2021/11/21 09:46:48;;;;;;;24.40;18.05;;;;;;;11.22;64.74;99639.39;2245691;79;27674;-67
2021/11/21 09:49:51;;;;;;;27.27;18.48;;;;;;;11.31;64.33;99636.61;2245910;79;28607;-61
2021/11/21 09:52:53;;;;;;;23.45;16.57;;;;;;;11.39;64.27;99632.09;2245458;79;31043;-64
2021/11/21 09:55:56;;;;;;;24.07;17.32;;;;;;;11.46;64.13;99629.41;2245155;78;34179;-66
2021/11/21 09:58:58;;;;;;;22.95;16.97;;;;;;;11.49;63.76;99622.98;2245236;79;29457;-64
2021/11/21 10:02:17;;;;;;;24.30;16.97;;;;;;;11.54;63.70;99628.92;2245652;78;27495;-67
2021/11/21 10:05:27;;;;;;;20.17;15.70;;;;;;;11.56;63.57;99632.38;2245578;79;29886;-67
2021/11/21 10:08:29;;;;;;;20.88;16.25;;;;;;;11.59;63.46;99624.09;2245485;79;32232;-67
2021/11/21 10:11:31;;;;;;;22.77;16.90;;;;;;;11.62;63.31;99626.59;2245651;79;33346;-66
2021/11/21 10:14:55;;;;;;;23.65;17.02;;;;;;;11.66;63.38;99625.44;2245664;79;30111;-66
2021/11/21 10:18:13;;;;;;;23.75;17.10;;;;;;;11.70;63.23;99618.03;2245598;79;27701;-66
2021/11/21 10:21:17;;;;;;;26.20;18.57;;;;;;;11.75;63.05;99621.28;2245413;79;29899;-64
2021/11/21 10:24:27;;;;;;;23.80;18.02;;;;;;;11.81;62.77;99622.23;2242517;79;32248;-62
2021/11/21 10:27:29;;;;;;;25.27;19.05;;;;;;;11.76;62.37;99609.59;2176404;80;33359;-64
2021/11/21 10:30:33;;;;;;;27.02;20.90;;;;;;;11.77;62.83;99611.31;2171776;81;29725;-67
2021/11/21 10:33:58;;;;;;;24.02;18.32;;;;;;;11.85;62.68;99612.16;2209020;79;33131;-68
2021/11/21 10:37:05;;;;;;;21.97;16.93;;;;;;;11.98;62.53;99613.55;2226315;79;29587;-66
2021/11/21 10:40:14;;;;;;;23.35;17.73;;;;;;;12.10;62.83;99602.02;2187146;81;31404;-64
2021/11/21 10:43:18;;;;;;;19.70;15.40;;;;;;;12.22;62.22;99602.14;2163736;80;33188;-65
2021/11/21 10:46:36;;;;;;;22.42;15.60;;;;;;;12.27;61.90;99605.38;2236297;79;30497;-65
2021/11/21 10:49:39;;;;;;;22.95;16.37;;;;;;;12.29;61.78;99595.40;2186649;79;27655;-64
2021/11/21 10:52:48;;;;;;;20.80;15.53;;;;;;;12.34;61.47;99605.32;2236747;79;29124;-66
2021/11/21 10:56:11;;;;;;;17.02;14.43;;;;;;;12.38;61.39;99603.31;2232748;79;32315;-63
2021/11/21 10:59:13;;;;;;;18.05;13.62;;;;;;;12.41;60.99;99604.45;2232971;79;33431;-65
2021/11/21 11:02:29;;;;;;;19.10;14.23;;;;;;;12.35;60.39;99615.60;2233049;79;29067;-62
2021/11/21 11:05:31;;;;;;;;;;;;;;;12.26;59.72;99603.16;2235733;79;27794;-65
2021/11/21 11:08:33;;;;;;;19.30;14.93;;;;;;;12.17;60.11;99599.77;2233002;79;29015;-66
2021/11/21 11:11:36;;;;;;;20.15;15.55;;;;;;;12.07;59.75;99596.84;2232937;79;31065;-65
2021/11/21 11:14:38;;;;;;;18.12;13.70;;;;;;;12.00;60.14;99598.20;2233781;79;32982;-65
2021/11/21 11:17:40;;;;;;;23.22;15.30;;;;;;;11.94;60.25;99595.42;2232983;79;29377;-66
2021/11/21 11:20:57;;;;;;;23.42;15.23;;;;;;;11.86;60.19;99592.41;2233328;79;27672;-66
2021/11/21 11:23:58;;;;;;;20.65;14.50;;;;;;;11.78;59.91;99592.04;2232896;79;30081;-65
2021/11/21 11:27:09;;;;;;;20.02;14.03;;;;;;;11.69;60.19;99597.06;2232938;79;31096;-65
2021/11/21 11:30:12;;;;;;;19.02;14.38;;;;;;;11.67;60.12;99596.77;2232389;79;34279;-64
2021/11/21 11:33:18;;;;;;;22.87;15.23;;;;;;;11.60;60.35;99590.95;2234107;79;30173;-63
2021/11/21 11:36:28;;;;;;;19.92;15.08;;;;;;;11.58;60.31;99596.92;2231866;78;27703;-62
2021/11/21 11:39:43;;;;;;;20.90;15.30;;;;;;;11.50;60.12;99590.68;2233613;79;28645;-62
2021/11/21 11:42:45;;;;;;;16.93;11.77;;;;;;;11.42;60.27;99590.83;2233724;79;31165;-62
2021/11/21 11:45:50;;;;;;;20.55;15.40;;;;;;;11.35;60.24;99592.55;2233081;79;34226;-65
2021/11/21 11:49:04;;;;;;;26.62;17.20;;;;;;;11.28;60.17;99583.66;2233451;79;30125;-63
2021/11/21 11:52:06;;;;;;;22.27;16.35;;;;;;;11.18;60.18;99588.75;2233553;79;27692;-65
2021/11/21 11:55:10;;;;;;;22.80;16.67;;;;;;;11.12;60.42;99585.11;2232962;79;28656;-66
2021/11/21 11:58:48;;;;;;;22.87;16.62;;;;;;;11.08;60.42;99587.13;2233325;79;31891;-64
2021/11/21 12:01:54;;;;;;;21.90;16.00;;;;;;;11.04;60.43;99584.25;2233424;79;32941;-66
2021/11/21 12:05:03;;;;;;;25.17;16.73;;;;;;;10.99;60.67;99578.34;2233249;79;29745;-61
2021/11/21 12:08:17;;;;;;;19.90;15.08;;;;;;;10.98;60.70;99577.47;2220087;79;27648;-65
2021/11/21 12:11:41;;;;;;;22.22;16.87;;;;;;;10.95;60.35;99581.67;2214599;80;28665;-67
2021/11/21 12:14:47;;;;;;;21.52;15.90;;;;;;;10.88;60.45;99579.86;2214360;80;30933;-64
2021/11/21 12:17:52;;;;;;;25.00;17.25;;;;;;;10.86;60.53;99584.45;2214510;80;33043;-66
2021/11/21 12:20:59;;;;;;;22.82;17.00;;;;;;;10.82;60.46;99580.27;2214187;80;30015;-67
2021/11/21 12:24:01;;;;;;;24.60;17.50;;;;;;;10.76;60.53;99580.64;2214781;80;27558;-65
2021/11/21 12:27:21;;;;;;;27.37;19.37;;;;;;;10.74;60.71;99579.87;2214262;80;30005;-66
2021/11/21 12:30:25;;;;;;;26.80;17.77;;;;;;;10.72;60.56;99579.09;2214667;80;31030;-64
2021/11/21 12:33:29;;;;;;;24.17;16.93;;;;;;;10.66;60.75;99572.80;2214434;80;33227;-67
2021/11/21 12:37:20;;;;;;;22.58;15.88;;;;;;;10.63;60.92;99582.74;2214737;80;29128;-63
2021/11/21 12:40:42;;;;;;;23.12;16.02;;;;;;;10.60;60.81;99578.03;2214685;80;27722;-62
2021/11/21 12:43:44;;;;;;;21.70;15.70;;;;;;;10.53;60.68;99578.04;2193718;80;29460;-57
2021/11/21 12:46:45;;;;;;;24.18;18.23;;;;;;;10.50;60.83;99576.42;2214548;80;31027;-58
2021/11/21 12:49:47;;;;;;;25.43;17.35;;;;;;;10.45;60.87;99575.34;2214216;80;34257;-65
2021/11/21 12:53:08;;;;;;;22.40;16.97;;;;;;;10.45;60.95;99574.49;2167661;80;30395;-68
2021/11/21 12:56:17;;;;;;;23.18;17.00;;;;;;;10.47;61.05;99565.89;2095458;84;27845;-66
2021/11/21 12:59:18;;;;;;;22.30;15.80;;;;;;;10.44;61.06;99566.92;2077114;84;29857;-66
2021/11/21 13:02:26;;;;;;;22.73;16.20;;;;;;;10.43;60.90;99567.88;2044546;86;31438;-64
2021/11/21 13:05:32;;;;;;;25.20;17.10;;;;;;;10.42;60.96;99574.21;2074456;85;33892;-66
2021/11/21 13:08:47;;;;;;;31.25;20.12;;;;;;;10.40;61.08;99568.09;2072185;84;29313;-67
2021/11/21 13:11:50;;;;;;;23.47;16.02;;;;;;;10.42;61.19;99575.55;2069386;85;27801;-65
2021/11/21 13:14:58;;;;;;;27.50;19.05;;;;;;;10.43;61.01;99568.36;2065679;84;29846;-61
2021/11/21 13:18:17;;;;;;;24.07;17.23;;;;;;;10.38;61.02;99563.30;2060625;86;31400;-64
2021/11/21 13:21:33;;;;;;;25.65;17.32;;;;;;;10.36;61.06;99569.19;2043408;86;33007;-60
2021/11/21 13:24:42;;;;;;;26.02;17.45;;;;;;;10.34;61.17;99575.11;2050523;86;30470;-68
2021/11/21 13:27:44;;;;;;;35.17;22.87;;;;;;;10.30;61.19;99570.42;2156262;80;28145;-58
2021/11/21 13:30:47;;;;;;;28.32;18.90;;;;;;;10.29;61.11;99571.38;2184306;80;29064;-61
2021/11/21 13:34:02;;;;;;;27.45;18.80;;;;;;;10.23;61.13;99574.41;2187285;80;31352;-62
2021/11/21 13:37:05;;;;;;;33.38;19.20;;;;;;;10.16;61.15;99579.27;2185091;80;33438;-52
2021/11/21 13:40:10;;;;;;;29.37;18.77;;;;;;;10.12;61.31;99580.89;2175004;80;29386;-55
2021/11/21 13:43:12;;;;;;;33.78;20.72;;;;;;;10.07;61.28;99585.64;2183910;80;28260;-61
2021/11/21 13:46:17;;;;;;;33.90;20.57;;;;;;;10.04;61.47;99589.37;2171768;80;29910;-70
2021/11/21 13:49:26;;;;;;;30.68;20.60;;;;;;;10.01;61.56;99586.38;2184548;80;32243;-65
2021/11/21 13:52:31;;;;;;;30.35;20.23;;;;;;;9.98;61.59;99582.58;2180230;80;33755;-54
2021/11/21 13:55:33;;;;;;;29.02;20.48;;;;;;;9.95;61.84;99581.41;2185125;80;29330;-58
2021/11/21 13:58:35;;;;;;;32.78;22.07;;;;;;;9.92;61.71;99576.73;2185136;80;28380;-57
2021/11/21 14:01:56;;;;;;;38.23;25.80;;;;;;;9.88;61.77;99584.05;2183371;80;28799;-60
2021/11/21 14:05:01;;;;;;;42.53;26.20;;;;;;;9.87;61.90;99583.66;2177743;80;31097;-58
2021/11/21 14:08:09;;;;;;;47.65;25.27;;;;;;;9.86;62.16;99588.16;2187510;79;32997;-58
2021/11/21 14:11:13;;;;;;;36.10;22.32;;;;;;;9.86;62.26;99589.50;2198665;79;29439;-62
2021/11/21 14:14:20;;;;;;;29.80;19.15;;;;;;;9.86;62.25;99593.52;2175749;80;37382;-61